Bay Port, New York
Current Conditions -  °F | °C
As of 3:56 PM on Tuesday 25 Nov 2014 (Local Time) from KISP Reporting Station
Overcast Overcast  
Wind Chill: 53°   Ceiling: 15000
Heat Index: 53°   Visibility: 10mi
Dew Point: 28°   Wind: 8mph
Humidity: 38%   Direction: 250°WSW
Pressure: 29.99"   Gusts: NA
Location:  40.746°N, 73.0539°W
Report Text: KISP 252056Z 25007KT 10SM FEW050 BKN150 OVC200 12/M02 A2999 RMK AO2 SLP154 T01171022 53006
Loading
Personal Weather Stations






























Interactive Weather Map New forecast layout! Learn more

10-Day Weather Forecast

Advertisements
Track Severe Weather on mobile